sensor_id;sensor_type;location;lat;lon;timestamp;pressure;altitude;pressure_sealevel;temperature;humidity
21290;BME280;10804;48.988;2.408;2023-12-20T00:01:42;101475.75;;;10.00;67.45
21290;BME280;10804;48.988;2.408;2023-12-20T00:04:08;101485.31;;;10.04;67.69
21290;BME280;10804;48.988;2.408;2023-12-20T00:06:36;101487.06;;;10.04;67.81
21290;BME280;10804;48.988;2.408;2023-12-20T00:09:03;101489.66;;;10.04;67.68
21290;BME280;10804;48.988;2.408;2023-12-20T00:11:30;101487.94;;;10.04;67.78
21290;BME280;10804;48.988;2.408;2023-12-20T00:13:58;101470.66;;;9.91;67.79
21290;BME280;10804;48.988;2.408;2023-12-20T00:16:27;101489.66;;;10.04;67.67
21290;BME280;10804;48.988;2.408;2023-12-20T00:18:54;101486.19;;;10.02;67.30
21290;BME280;10804;48.988;2.408;2023-12-20T00:21:21;101500.06;;;10.04;67.47
21290;BME280;10804;48.988;2.408;2023-12-20T00:23:49;101505.28;;;10.04;67.59
21290;BME280;10804;48.988;2.408;2023-12-20T00:26:17;101515.72;;;10.04;67.81
21290;BME280;10804;48.988;2.408;2023-12-20T00:28:44;101515.72;;;10.04;67.89
21290;BME280;10804;48.988;2.408;2023-12-20T00:31:12;101501.81;;;9.99;67.26
21290;BME280;10804;48.988;2.408;2023-12-20T00:33:40;101510.47;;;10.02;67.41
21290;BME280;10804;48.988;2.408;2023-12-20T00:36:09;101511.38;;;10.03;67.47
21290;BME280;10804;48.988;2.408;2023-12-20T00:38:37;101482.91;;;9.83;67.74
21290;BME280;10804;48.988;2.408;2023-12-20T00:41:04;101503.56;;;10.00;67.65
21290;BME280;10804;48.988;2.408;2023-12-20T00:43:32;101507.88;;;10.02;67.43
21290;BME280;10804;48.988;2.408;2023-12-20T00:45:59;101512.25;;;10.02;67.66
21290;BME280;10804;48.988;2.408;2023-12-20T00:48:27;101513.13;;;10.01;67.39
21290;BME280;10804;48.988;2.408;2023-12-20T00:50:57;101469.94;;;9.76;67.79
21290;BME280;10804;48.988;2.408;2023-12-20T00:53:24;101503.56;;;10.00;67.48
21290;BME280;10804;48.988;2.408;2023-12-20T00:55:52;101483.81;;;9.79;67.60
21290;BME280;10804;48.988;2.408;2023-12-20T00:58:19;101527.88;;;9.99;67.69
21290;BME280;10804;48.988;2.408;2023-12-20T01:00:46;101512.41;;;9.87;67.45
21290;BME280;10804;48.988;2.408;2023-12-20T01:03:14;101516.63;;;9.97;67.37
21290;BME280;10804;48.988;2.408;2023-12-20T01:05:41;101510.63;;;9.89;67.56
21290;BME280;10804;48.988;2.408;2023-12-20T01:08:10;101543.56;;;9.94;67.30
21290;BME280;10804;48.988;2.408;2023-12-20T01:10:38;101533.16;;;9.94;67.45
21290;BME280;10804;48.988;2.408;2023-12-20T01:13:06;101538.41;;;9.93;67.56
21290;BME280;10804;48.988;2.408;2023-12-20T01:15:34;101535.78;;;9.93;67.33
21290;BME280;10804;48.988;2.408;2023-12-20T01:18:03;101534.03;;;9.92;67.63
21290;BME280;10804;48.988;2.408;2023-12-20T01:20:30;101541.91;;;9.89;67.48
21290;BME280;10804;48.988;2.408;2023-12-20T01:22:58;101543.66;;;9.84;67.32
21290;BME280;10804;48.988;2.408;2023-12-20T01:25:26;101533.34;;;9.78;67.36
21290;BME280;10804;48.988;2.408;2023-12-20T01:27:54;101540.22;;;9.85;67.27
21290;BME280;10804;48.988;2.408;2023-12-20T01:30:21;101545.44;;;9.83;67.66
21290;BME280;10804;48.988;2.408;2023-12-20T01:32:48;101545.44;;;9.83;67.66
21290;BME280;10804;48.988;2.408;2023-12-20T01:35:16;101532.50;;;9.74;67.68
21290;BME280;10804;48.988;2.408;2023-12-20T01:37:43;101525.66;;;9.63;67.48
21290;BME280;10804;48.988;2.408;2023-12-20T01:40:11;101555.03;;;9.77;67.38
21290;BME280;10804;48.988;2.408;2023-12-20T01:42:39;101548.97;;;9.75;67.50
21290;BME280;10804;48.988;2.408;2023-12-20T01:45:08;101550.75;;;9.73;67.76
21290;BME280;10804;48.988;2.408;2023-12-20T01:47:35;101552.50;;;9.71;67.63
21290;BME280;10804;48.988;2.408;2023-12-20T01:50:04;101549.91;;;9.68;67.40
21290;BME280;10804;48.988;2.408;2023-12-20T01:52:34;101556.00;;;9.67;67.46
21290;BME280;10804;48.988;2.408;2023-12-20T01:55:02;101556.00;;;9.65;67.55
21290;BME280;10804;48.988;2.408;2023-12-20T01:57:32;101556.91;;;9.63;67.56
21290;BME280;10804;48.988;2.408;2023-12-20T02:00:01;101538.78;;;9.51;67.36
21290;BME280;10804;48.988;2.408;2023-12-20T02:02:31;101567.34;;;9.60;67.74
21290;BME280;10804;48.988;2.408;2023-12-20T02:04:59;101564.78;;;9.58;67.50
21290;BME280;10804;48.988;2.408;2023-12-20T02:07:28;101573.47;;;9.56;67.71
21290;BME280;10804;48.988;2.408;2023-12-20T02:09:56;101565.66;;;9.53;67.41
21290;BME280;10804;48.988;2.408;2023-12-20T02:12:23;101573.47;;;9.53;67.35
21290;BME280;10804;48.988;2.408;2023-12-20T02:14:51;101573.50;;;9.50;67.46
21290;BME280;10804;48.988;2.408;2023-12-20T02:17:22;101582.19;;;9.49;67.41
21290;BME280;10804;48.988;2.408;2023-12-20T02:19:50;101583.97;;;9.44;68.02
21290;BME280;10804;48.988;2.408;2023-12-20T02:22:19;101590.00;;;9.46;67.70
21290;BME280;10804;48.988;2.408;2023-12-20T02:24:46;101561.47;;;9.34;67.79
21290;BME280;10804;48.988;2.408;2023-12-20T02:27:15;101582.25;;;9.43;67.53
21290;BME280;10804;48.988;2.408;2023-12-20T02:29:46;101597.00;;;9.41;68.09
21290;BME280;10804;48.988;2.408;2023-12-20T02:32:14;101588.31;;;9.40;68.17
21290;BME280;10804;48.988;2.408;2023-12-20T02:34:41;101589.19;;;9.38;67.71
21290;BME280;10804;48.988;2.408;2023-12-20T02:37:08;101592.69;;;9.37;67.99
21290;BME280;10804;48.988;2.408;2023-12-20T02:39:37;101595.28;;;9.38;67.73
21290;BME280;10804;48.988;2.408;2023-12-20T02:42:04;101592.69;;;9.37;67.71
21290;BME280;10804;48.988;2.408;2023-12-20T02:44:31;101598.78;;;9.36;67.99
21290;BME280;10804;48.988;2.408;2023-12-20T02:46:59;101595.31;;;9.34;68.05
21290;BME280;10804;48.988;2.408;2023-12-20T02:49:26;101592.72;;;9.34;67.90
21290;BME280;10804;48.988;2.408;2023-12-20T02:51:53;101587.50;;;9.34;67.99
21290;BME280;10804;48.988;2.408;2023-12-20T02:54:21;101586.66;;;9.32;68.19
21290;BME280;10804;48.988;2.408;2023-12-20T02:56:50;101591.00;;;9.31;68.19
21290;BME280;10804;48.988;2.408;2023-12-20T02:59:17;101589.28;;;9.32;68.24
21290;BME280;10804;48.988;2.408;2023-12-20T03:01:45;101593.63;;;9.28;67.97
21290;BME280;10804;48.988;2.408;2023-12-20T03:04:13;101585.81;;;9.27;67.77
21290;BME280;10804;48.988;2.408;2023-12-20T03:06:40;101602.31;;;9.26;67.93
21290;BME280;10804;48.988;2.408;2023-12-20T03:09:07;101601.47;;;9.24;68.12
21290;BME280;10804;48.988;2.408;2023-12-20T03:11:34;101593.66;;;9.22;68.11
21290;BME280;10804;48.988;2.408;2023-12-20T03:14:03;101588.47;;;9.22;67.92
21290;BME280;10804;48.988;2.408;2023-12-20T03:16:30;101601.47;;;9.21;67.93
21290;BME280;10804;48.988;2.408;2023-12-20T03:18:59;101605.84;;;9.20;68.06
21290;BME280;10804;48.988;2.408;2023-12-20T03:21:26;101603.22;;;9.19;67.93
21290;BME280;10804;48.988;2.408;2023-12-20T03:23:53;101603.22;;;9.16;68.00
21290;BME280;10804;48.988;2.408;2023-12-20T03:26:21;101595.44;;;9.14;68.40
21290;BME280;10804;48.988;2.408;2023-12-20T03:28:49;101596.34;;;9.13;68.11
21290;BME280;10804;48.988;2.408;2023-12-20T03:31:18;101602.41;;;9.12;68.36
21290;BME280;10804;48.988;2.408;2023-12-20T03:33:45;101606.75;;;9.12;68.38
21290;BME280;10804;48.988;2.408;2023-12-20T03:36:13;101601.56;;;9.09;68.22
21290;BME280;10804;48.988;2.408;2023-12-20T03:38:40;101608.50;;;9.07;68.59
21290;BME280;10804;48.988;2.408;2023-12-20T03:41:07;101601.59;;;9.03;68.41
21290;BME280;10804;48.988;2.408;2023-12-20T03:43:35;101608.53;;;9.04;68.68
21290;BME280;10804;48.988;2.408;2023-12-20T03:46:02;101601.59;;;9.03;68.76
21290;BME280;10804;48.988;2.408;2023-12-20T03:48:31;101599.00;;;9.01;68.69
21290;BME280;10804;48.988;2.408;2023-12-20T03:50:59;101612.00;;;9.00;68.57
21290;BME280;10804;48.988;2.408;2023-12-20T03:53:26;101618.06;;;8.99;68.29
21290;BME280;10804;48.988;2.408;2023-12-20T03:55:53;101610.31;;;8.97;69.06
21290;BME280;10804;48.988;2.408;2023-12-20T03:58:21;101605.09;;;8.94;68.72
21290;BME280;10804;48.988;2.408;2023-12-20T04:00:48;101613.78;;;8.95;68.30
21290;BME280;10804;48.988;2.408;2023-12-20T04:03:15;101601.66;;;8.92;68.79
21290;BME280;10804;48.988;2.408;2023-12-20T04:05:44;101602.53;;;8.91;68.97
21290;BME280;10804;48.988;2.408;2023-12-20T04:08:11;101599.91;;;8.90;68.71
21290;BME280;10804;48.988;2.408;2023-12-20T04:10:39;101601.66;;;8.88;68.70
21290;BME280;10804;48.988;2.408;2023-12-20T04:13:06;101601.66;;;8.86;68.68
21290;BME280;10804;48.988;2.408;2023-12-20T04:15:34;101603.41;;;8.86;68.66
21290;BME280;10804;48.988;2.408;2023-12-20T04:18:01;101600.81;;;8.86;68.58
21290;BME280;10804;48.988;2.408;2023-12-20T04:20:29;101600.81;;;8.81;68.73
21290;BME280;10804;48.988;2.408;2023-12-20T04:22:57;101617.31;;;8.82;69.10
21290;BME280;10804;48.988;2.408;2023-12-20T04:25:25;101617.31;;;8.79;68.78
21290;BME280;10804;48.988;2.408;2023-12-20T04:27:52;101626.00;;;8.78;69.17
21290;BME280;10804;48.988;2.408;2023-12-20T04:30:20;101630.31;;;8.76;68.47
21290;BME280;10804;48.988;2.408;2023-12-20T04:32:47;101621.66;;;8.75;69.02
21290;BME280;10804;48.988;2.408;2023-12-20T04:35:14;101613.88;;;8.74;69.02
21290;BME280;10804;48.988;2.408;2023-12-20T04:37:41;101608.66;;;8.72;68.88
21290;BME280;10804;48.988;2.408;2023-12-20T04:40:11;101612.13;;;8.70;68.68
21290;BME280;10804;48.988;2.408;2023-12-20T04:42:38;101609.53;;;8.70;69.19
21290;BME280;10804;48.988;2.408;2023-12-20T04:45:06;101601.75;;;8.67;69.31
21290;BME280;10804;48.988;2.408;2023-12-20T04:47:33;101607.84;;;8.66;69.04
21290;BME280;10804;48.988;2.408;2023-12-20T04:50:01;101600.91;;;8.63;69.16
21290;BME280;10804;48.988;2.408;2023-12-20T04:52:28;101606.97;;;8.64;68.71
21290;BME280;10804;48.988;2.408;2023-12-20T04:54:56;101610.44;;;8.60;68.97
21290;BME280;10804;48.988;2.408;2023-12-20T04:57:24;101607.84;;;8.58;68.87
21290;BME280;10804;48.988;2.408;2023-12-20T04:59:52;101613.06;;;8.57;69.19
21290;BME280;10804;48.988;2.408;2023-12-20T05:02:19;101613.06;;;8.57;69.28
21290;BME280;10804;48.988;2.408;2023-12-20T05:04:46;101611.34;;;8.53;69.09
21290;BME280;10804;48.988;2.408;2023-12-20T05:07:13;101620.00;;;8.52;69.24
21290;BME280;10804;48.988;2.408;2023-12-20T05:09:41;101627.81;;;8.52;69.12
21290;BME280;10804;48.988;2.408;2023-12-20T05:12:08;101622.63;;;8.49;69.13
21290;BME280;10804;48.988;2.408;2023-12-20T05:14:37;101629.53;;;8.47;68.99
21290;BME280;10804;48.988;2.408;2023-12-20T05:17:04;101622.66;;;8.40;68.99
21290;BME280;10804;48.988;2.408;2023-12-20T05:19:32;101612.28;;;8.29;69.69
21290;BME280;10804;48.988;2.408;2023-12-20T05:22:01;101624.38;;;8.41;69.17
21290;BME280;10804;48.988;2.408;2023-12-20T05:24:29;101596.72;;;8.25;69.72
21290;BME280;10804;48.988;2.408;2023-12-20T05:26:56;101604.47;;;8.31;69.25
21290;BME280;10804;48.988;2.408;2023-12-20T05:29:23;101633.91;;;8.36;69.75
21290;BME280;10804;48.988;2.408;2023-12-20T05:31:52;101608.84;;;8.26;69.55
21290;BME280;10804;48.988;2.408;2023-12-20T05:34:20;101623.53;;;8.34;69.82
21290;BME280;10804;48.988;2.408;2023-12-20T05:36:47;101624.41;;;8.32;69.36
21290;BME280;10804;48.988;2.408;2023-12-20T05:39:15;101627.84;;;8.31;69.47
21290;BME280;10804;48.988;2.408;2023-12-20T05:41:42;101633.06;;;8.28;69.73
21290;BME280;10804;48.988;2.408;2023-12-20T05:44:10;101637.38;;;8.27;69.48
21290;BME280;10804;48.988;2.408;2023-12-20T05:46:37;101631.34;;;8.27;69.98
21290;BME280;10804;48.988;2.408;2023-12-20T05:49:07;101629.63;;;8.26;69.97
21290;BME280;10804;48.988;2.408;2023-12-20T05:51:34;101631.34;;;8.24;69.76
21290;BME280;10804;48.988;2.408;2023-12-20T05:54:02;101638.28;;;8.22;70.00
21290;BME280;10804;48.988;2.408;2023-12-20T05:56:30;101647.81;;;8.21;69.60
21290;BME280;10804;48.988;2.408;2023-12-20T05:58:57;101640.91;;;8.20;69.58
21290;BME280;10804;48.988;2.408;2023-12-20T06:01:25;101650.38;;;8.18;69.30
21290;BME280;10804;48.988;2.408;2023-12-20T06:03:53;101652.13;;;8.18;69.61
21290;BME280;10804;48.988;2.408;2023-12-20T06:06:21;101661.63;;;8.17;69.58
21290;BME280;10804;48.988;2.408;2023-12-20T06:08:49;101654.72;;;8.16;69.35
21290;BME280;10804;48.988;2.408;2023-12-20T06:11:16;101641.72;;;8.10;69.82
21290;BME280;10804;48.988;2.408;2023-12-20T06:13:43;101653.84;;;8.16;69.46
21290;BME280;10804;48.988;2.408;2023-12-20T06:16:11;101646.94;;;8.12;70.09
21290;BME280;10804;48.988;2.408;2023-12-20T06:18:38;101656.47;;;8.14;69.76
21290;BME280;10804;48.988;2.408;2023-12-20T06:21:06;101648.66;;;8.13;69.96
21290;BME280;10804;48.988;2.408;2023-12-20T06:23:35;101635.69;;;8.10;69.88
21290;BME280;10804;48.988;2.408;2023-12-20T06:26:03;101658.16;;;8.12;69.60
21290;BME280;10804;48.988;2.408;2023-12-20T06:28:30;101638.25;;;8.01;69.99
21290;BME280;10804;48.988;2.408;2023-12-20T06:30:58;101650.41;;;8.11;69.88
21290;BME280;10804;48.988;2.408;2023-12-20T06:33:26;101650.41;;;8.11;69.69
21290;BME280;10804;48.988;2.408;2023-12-20T06:35:55;101653.84;;;8.11;70.25
21290;BME280;10804;48.988;2.408;2023-12-20T06:38:22;101649.50;;;8.09;69.95
21290;BME280;10804;48.988;2.408;2023-12-20T06:40:51;101647.78;;;8.08;70.26
21290;BME280;10804;48.988;2.408;2023-12-20T06:43:19;101650.41;;;8.05;69.91
21290;BME280;10804;48.988;2.408;2023-12-20T06:45:46;101661.66;;;8.05;69.76
21290;BME280;10804;48.988;2.408;2023-12-20T06:48:13;101663.38;;;8.06;69.82
21290;BME280;10804;48.988;2.408;2023-12-20T06:50:41;101657.31;;;7.97;70.07
21290;BME280;10804;48.988;2.408;2023-12-20T06:53:08;101665.09;;;8.06;69.96
21290;BME280;10804;48.988;2.408;2023-12-20T06:55:36;101665.09;;;8.04;70.20
21290;BME280;10804;48.988;2.408;2023-12-20T06:58:05;101662.50;;;8.00;70.28
21290;BME280;10804;48.988;2.408;2023-12-20T07:00:33;101660.78;;;7.99;69.91
21290;BME280;10804;48.988;2.408;2023-12-20T07:03:00;101672.91;;;8.03;69.86
21290;BME280;10804;48.988;2.408;2023-12-20T07:05:28;101667.72;;;8.01;70.03
21290;BME280;10804;48.988;2.408;2023-12-20T07:07:55;101660.78;;;7.96;69.88
21290;BME280;10804;48.988;2.408;2023-12-20T07:10:22;101668.59;;;8.00;70.08
21290;BME280;10804;48.988;2.408;2023-12-20T07:12:50;101656.47;;;7.84;69.70
21290;BME280;10804;48.988;2.408;2023-12-20T07:15:19;101681.56;;;7.93;69.59
21290;BME280;10804;48.988;2.408;2023-12-20T07:17:47;101680.69;;;7.95;70.02
21290;BME280;10804;48.988;2.408;2023-12-20T07:20:14;101687.63;;;7.96;69.69
21290;BME280;10804;48.988;2.408;2023-12-20T07:22:42;101679.81;;;7.96;69.99
21290;BME280;10804;48.988;2.408;2023-12-20T07:25:09;101661.63;;;7.86;70.09
21290;BME280;10804;48.988;2.408;2023-12-20T07:27:37;101672.94;;;7.94;70.06
21290;BME280;10804;48.988;2.408;2023-12-20T07:30:05;101682.44;;;7.95;70.18
21290;BME280;10804;48.988;2.408;2023-12-20T07:32:34;101686.75;;;7.93;70.11
21290;BME280;10804;48.988;2.408;2023-12-20T07:35:02;101659.94;;;7.79;70.25
21290;BME280;10804;48.988;2.408;2023-12-20T07:37:31;101689.34;;;7.93;69.96
21290;BME280;10804;48.988;2.408;2023-12-20T07:39:58;101689.34;;;7.93;70.15
21290;BME280;10804;48.988;2.408;2023-12-20T07:42:25;101696.28;;;7.91;70.12
21290;BME280;10804;48.988;2.408;2023-12-20T07:44:53;101689.34;;;7.93;70.38
21290;BME280;10804;48.988;2.408;2023-12-20T07:47:21;101698.88;;;7.91;69.96
21290;BME280;10804;48.988;2.408;2023-12-20T07:49:50;101693.69;;;7.91;69.76
21290;BME280;10804;48.988;2.408;2023-12-20T07:52:17;101704.94;;;7.91;70.10
21290;BME280;10804;48.988;2.408;2023-12-20T07:54:45;101691.94;;;7.84;70.03
21290;BME280;10804;48.988;2.408;2023-12-20T07:57:12;101686.78;;;7.82;69.44
21290;BME280;10804;48.988;2.408;2023-12-20T07:59:40;101694.53;;;7.88;70.18
21290;BME280;10804;48.988;2.408;2023-12-20T08:02:07;101698.00;;;7.87;70.14
21290;BME280;10804;48.988;2.408;2023-12-20T08:04:35;101692.81;;;7.89;69.71
21290;BME280;10804;48.988;2.408;2023-12-20T08:07:04;101697.16;;;7.87;69.83
21290;BME280;10804;48.988;2.408;2023-12-20T08:09:32;101669.44;;;7.77;69.64
21290;BME280;10804;48.988;2.408;2023-12-20T08:11:59;101690.19;;;7.86;70.14
21290;BME280;10804;48.988;2.408;2023-12-20T08:14:27;101690.19;;;7.86;70.01
21290;BME280;10804;48.988;2.408;2023-12-20T08:16:54;101687.63;;;7.87;70.28
21290;BME280;10804;48.988;2.408;2023-12-20T08:19:22;101683.31;;;7.88;70.41
21290;BME280;10804;48.988;2.408;2023-12-20T08:21:49;101688.47;;;7.85;70.17
21290;BME280;10804;48.988;2.408;2023-12-20T08:24:18;101688.47;;;7.85;70.11
21290;BME280;10804;48.988;2.408;2023-12-20T08:26:45;101685.00;;;7.77;69.93
21290;BME280;10804;48.988;2.408;2023-12-20T08:29:13;101685.03;;;7.83;70.03
21290;BME280;10804;48.988;2.408;2023-12-20T08:31:40;101688.47;;;7.85;70.19
21290;BME280;10804;48.988;2.408;2023-12-20T08:34:07;101670.28;;;7.71;69.70
21290;BME280;10804;48.988;2.408;2023-12-20T08:36:34;101698.88;;;7.85;70.35
21290;BME280;10804;48.988;2.408;2023-12-20T08:39:02;101696.28;;;7.77;70.04
21290;BME280;10804;48.988;2.408;2023-12-20T08:41:34;101709.25;;;7.85;69.79
21290;BME280;10804;48.988;2.408;2023-12-20T08:44:03;101704.94;;;7.84;70.12
21290;BME280;10804;48.988;2.408;2023-12-20T08:46:30;101710.97;;;7.83;70.11
21290;BME280;10804;48.988;2.408;2023-12-20T08:48:58;101699.72;;;7.84;69.85
21290;BME280;10804;48.988;2.408;2023-12-20T08:51:26;101693.66;;;7.85;69.89
21290;BME280;10804;48.988;2.408;2023-12-20T08:53:54;101685.88;;;7.68;69.94
21290;BME280;10804;48.988;2.408;2023-12-20T08:56:21;101712.72;;;7.84;70.08
21290;BME280;10804;48.988;2.408;2023-12-20T08:58:50;101716.16;;;7.86;70.02
21290;BME280;10804;48.988;2.408;2023-12-20T09:01:18;101722.22;;;7.80;70.07
21290;BME280;10804;48.988;2.408;2023-12-20T09:03:45;101709.28;;;7.88;70.21
21290;BME280;10804;48.988;2.408;2023-12-20T09:06:12;101721.38;;;7.89;69.47
21290;BME280;10804;48.988;2.408;2023-12-20T09:08:40;101705.78;;;7.86;70.18
21290;BME280;10804;48.988;2.408;2023-12-20T09:11:07;101705.78;;;7.92;69.51
21290;BME280;10804;48.988;2.408;2023-12-20T09:13:34;101715.31;;;7.94;69.80
21290;BME280;10804;48.988;2.408;2023-12-20T09:16:04;101711.00;;;7.95;69.58
21290;BME280;10804;48.988;2.408;2023-12-20T09:18:31;101707.53;;;7.99;69.53
21290;BME280;10804;48.988;2.408;2023-12-20T09:20:59;101704.94;;;8.00;70.06
21290;BME280;10804;48.988;2.408;2023-12-20T09:23:26;101704.09;;;8.03;69.67
21290;BME280;10804;48.988;2.408;2023-12-20T09:25:54;101687.63;;;8.04;69.60
21290;BME280;10804;48.988;2.408;2023-12-20T09:28:21;101697.16;;;8.09;69.68
21290;BME280;10804;48.988;2.408;2023-12-20T09:30:49;101700.63;;;8.13;69.27
21290;BME280;10804;48.988;2.408;2023-12-20T09:33:18;101704.06;;;8.15;69.65
21290;BME280;10804;48.988;2.408;2023-12-20T09:35:45;101691.97;;;8.11;69.68
21290;BME280;10804;48.988;2.408;2023-12-20T09:38:13;101707.56;;;8.20;68.89
21290;BME280;10804;48.988;2.408;2023-12-20T09:40:42;101693.72;;;8.21;69.33
21290;BME280;10804;48.988;2.408;2023-12-20T09:43:11;101708.41;;;8.31;69.74
21290;BME280;10804;48.988;2.408;2023-12-20T09:45:41;101713.63;;;8.34;69.67
21290;BME280;10804;48.988;2.408;2023-12-20T09:48:11;101717.09;;;8.37;69.00
21290;BME280;10804;48.988;2.408;2023-12-20T09:50:42;101718.84;;;8.40;69.54
21290;BME280;10804;48.988;2.408;2023-12-20T09:53:10;101718.81;;;8.44;69.32
21290;BME280;10804;48.988;2.408;2023-12-20T09:55:39;101717.94;;;8.47;69.89
21290;BME280;10804;48.988;2.408;2023-12-20T09:58:08;101713.59;;;8.50;69.71
21290;BME280;10804;48.988;2.408;2023-12-20T10:00:35;101708.41;;;8.47;69.43
21290;BME280;10804;48.988;2.408;2023-12-20T10:03:03;101719.66;;;8.54;69.25
21290;BME280;10804;48.988;2.408;2023-12-20T10:05:33;101709.28;;;8.57;69.26
21290;BME280;10804;48.988;2.408;2023-12-20T10:08:03;101711.84;;;8.60;69.38
21290;BME280;10804;48.988;2.408;2023-12-20T10:10:31;101717.06;;;8.61;69.02
21290;BME280;10804;48.988;2.408;2023-12-20T10:13:03;101691.94;;;8.53;69.54
21290;BME280;10804;48.988;2.408;2023-12-20T10:15:31;101698.84;;;8.66;69.42
21290;BME280;10804;48.988;2.408;2023-12-20T10:17:59;101710.97;;;8.67;69.32
21290;BME280;10804;48.988;2.408;2023-12-20T10:20:26;101702.31;;;8.71;69.08
21290;BME280;10804;48.988;2.408;2023-12-20T10:22:54;101691.91;;;8.71;69.21
21290;BME280;10804;48.988;2.408;2023-12-20T10:25:24;101696.22;;;8.75;68.97
21290;BME280;10804;48.988;2.408;2023-12-20T10:28:09;101686.66;;;8.77;69.41
21290;BME280;10804;48.988;2.408;2023-12-20T10:30:36;101680.59;;;8.79;69.41
21290;BME280;10804;48.988;2.408;2023-12-20T10:33:05;101676.25;;;8.81;69.13
21290;BME280;10804;48.988;2.408;2023-12-20T10:35:34;101671.91;;;8.85;68.91
21290;BME280;10804;48.988;2.408;2023-12-20T10:38:04;101674.50;;;8.85;69.04
21290;BME280;10804;48.988;2.408;2023-12-20T10:40:34;101676.25;;;8.86;69.09
21290;BME280;10804;48.988;2.408;2023-12-20T10:43:03;101680.56;;;8.91;68.96
21290;BME280;10804;48.988;2.408;2023-12-20T10:45:31;101671.88;;;8.92;69.07
21290;BME280;10804;48.988;2.408;2023-12-20T10:47:58;101674.44;;;9.00;69.06
21290;BME280;10804;48.988;2.408;2023-12-20T10:50:27;101682.22;;;9.04;69.39
21290;BME280;10804;48.988;2.408;2023-12-20T10:52:56;101652.78;;;8.99;69.52
21290;BME280;10804;48.988;2.408;2023-12-20T10:55:24;101663.97;;;9.16;68.72
21290;BME280;10804;48.988;2.408;2023-12-20T10:57:54;101646.63;;;9.17;68.98
21290;BME280;10804;48.988;2.408;2023-12-20T11:00:28;101657.84;;;9.23;68.63
21290;BME280;10804;48.988;2.408;2023-12-20T11:03:00;101652.63;;;9.28;68.58
21290;BME280;10804;48.988;2.408;2023-12-20T11:05:35;101650.84;;;9.34;68.88
21290;BME280;10804;48.988;2.408;2023-12-20T11:08:07;101649.94;;;9.43;68.61
21290;BME280;10804;48.988;2.408;2023-12-20T11:10:41;101660.31;;;9.49;68.78
21290;BME280;10804;48.988;2.408;2023-12-20T11:13:17;101633.41;;;9.51;68.63
21290;BME280;10804;48.988;2.408;2023-12-20T11:15:47;101631.56;;;9.62;68.37
21290;BME280;10804;48.988;2.408;2023-12-20T11:18:15;101632.44;;;9.63;68.45
21290;BME280;10804;48.988;2.408;2023-12-20T11:20:42;101612.31;;;9.78;68.46
21290;BME280;10804;48.988;2.408;2023-12-20T11:23:10;101619.22;;;9.85;68.38
21290;BME280;10804;48.988;2.408;2023-12-20T11:25:48;101603.53;;;9.91;68.28
21290;BME280;10804;48.988;2.408;2023-12-20T11:28:20;101592.16;;;10.00;68.45
21290;BME280;10804;48.988;2.408;2023-12-20T11:30:50;101604.31;;;10.01;68.44
21290;BME280;10804;48.988;2.408;2023-12-20T11:33:21;101605.94;;;10.14;68.28
21290;BME280;10804;48.988;2.408;2023-12-20T11:35:49;101613.72;;;10.18;68.40
21290;BME280;10804;48.988;2.408;2023-12-20T11:38:20;101616.25;;;10.27;68.26
21290;BME280;10804;48.988;2.408;2023-12-20T11:40:48;101610.09;;;10.34;68.14
21290;BME280;10804;48.988;2.408;2023-12-20T11:43:30;101600.50;;;10.35;67.81
21290;BME280;10804;48.988;2.408;2023-12-20T11:46:03;101599.50;;;10.48;67.75
21290;BME280;10804;48.988;2.408;2023-12-20T11:48:30;101609.00;;;10.55;67.82
21290;BME280;10804;48.988;2.408;2023-12-20T11:50:58;101614.22;;;10.55;67.96
21290;BME280;10804;48.988;2.408;2023-12-20T11:53:26;101614.09;;;10.64;67.65
21290;BME280;10804;48.988;2.408;2023-12-20T11:55:54;101607.09;;;10.69;67.58
21290;BME280;10804;48.988;2.408;2023-12-20T11:58:21;101616.59;;;10.73;67.57
21290;BME280;10804;48.988;2.408;2023-12-20T12:00:51;101613.94;;;10.76;67.21
21290;BME280;10804;48.988;2.408;2023-12-20T12:03:18;101618.25;;;10.78;67.10
21290;BME280;10804;48.988;2.408;2023-12-20T12:05:47;101623.47;;;10.80;67.02
21290;BME280;10804;48.988;2.408;2023-12-20T12:08:15;101619.97;;;10.79;66.92
21290;BME280;10804;48.988;2.408;2023-12-20T12:10:44;101619.09;;;10.82;66.93
21290;BME280;10804;48.988;2.408;2023-12-20T12:13:11;101615.59;;;10.83;66.87
21290;BME280;10804;48.988;2.408;2023-12-20T12:15:40;101617.31;;;10.84;66.78
21290;BME280;10804;48.988;2.408;2023-12-20T12:18:10;101615.56;;;10.84;66.84
21290;BME280;10804;48.988;2.408;2023-12-20T12:20:38;101618.19;;;10.86;66.73
21290;BME280;10804;48.988;2.408;2023-12-20T12:23:06;101613.84;;;10.85;66.74
21290;BME280;10804;48.988;2.408;2023-12-20T12:25:36;101613.88;;;10.82;66.70
21290;BME280;10804;48.988;2.408;2023-12-20T12:28:03;101605.16;;;10.83;66.53
21290;BME280;10804;48.988;2.408;2023-12-20T12:30:31;101594.72;;;10.83;66.57
21290;BME280;10804;48.988;2.408;2023-12-20T12:32:58;101598.19;;;10.83;66.53
21290;BME280;10804;48.988;2.408;2023-12-20T12:35:27;101549.78;;;10.63;66.66
21290;BME280;10804;48.988;2.408;2023-12-20T12:37:55;101577.34;;;10.82;66.42
21290;BME280;10804;48.988;2.408;2023-12-20T12:40:26;101564.34;;;10.76;66.34
21290;BME280;10804;48.988;2.408;2023-12-20T12:42:53;101573.88;;;10.80;66.43
21290;BME280;10804;48.988;2.408;2023-12-20T12:45:20;101556.59;;;10.73;66.54
21290;BME280;10804;48.988;2.408;2023-12-20T12:47:48;101555.63;;;10.78;66.32
21290;BME280;10804;48.988;2.408;2023-12-20T12:50:15;101547.84;;;10.77;66.28
21290;BME280;10804;48.988;2.408;2023-12-20T12:52:44;101545.25;;;10.77;66.30
21290;BME280;10804;48.988;2.408;2023-12-20T12:55:11;101535.66;;;10.76;66.29
21290;BME280;10804;48.988;2.408;2023-12-20T12:57:39;101535.66;;;10.76;66.21
21290;BME280;10804;48.988;2.408;2023-12-20T13:00:07;101537.41;;;10.77;66.27
21290;BME280;10804;48.988;2.408;2023-12-20T13:02:35;101526.97;;;10.77;66.13